Time;durP1;ratioP1;P1;durP2;ratioP2;P2;SDS_P1;SDS_P2;PMS_P1;PMS_P2;Temp;Humidity;BMP_temperature;BMP_pressure;BME280_temperature;BME280_humidity;BME280_pressure;Samples;Min_cycle;Max_cycle;Signal;HPM_P1;HPM_P2
2021/04/23 00:00:01;;;;;;;6.50;4.73;;;;;;;;;;5075991;28;20439;-66
2021/04/23 00:02:27;;;;;;;10.80;5.00;;;;;;;;;;5075005;28;20730;-66
2021/04/23 00:04:54;;;;;;;6.63;4.13;;;;;;;;;;5076417;28;20447;-66
2021/04/23 00:07:20;;;;;;;9.40;4.00;;;;;;;;;;5075476;28;20921;-66
2021/04/23 00:09:46;;;;;;;7.83;4.40;;;;;;;;;;5076588;28;20919;-66
2021/04/23 00:12:13;;;;;;;8.57;4.23;;;;;;;;;;5075646;28;21251;-66
2021/04/23 00:14:42;;;;;;;6.00;3.40;;;;;;;;;;5076512;28;20425;-66
2021/04/23 00:17:10;;;;;;;11.20;5.40;;;;;;;;;;5073645;28;20424;-65
2021/04/23 00:19:37;;;;;;;10.50;4.80;;;;;;;;;;5076453;28;20399;-66
2021/04/23 00:22:04;;;;;;;11.80;4.23;;;;;;;;;;5076858;28;20404;-66
2021/04/23 00:24:30;;;;;;;11.47;4.13;;;;;;;;;;5075359;28;20433;-65
2021/04/23 00:26:56;;;;;;;6.63;4.23;;;;;;;;;;5076757;28;20404;-65
2021/04/23 00:29:22;;;;;;;5.73;4.30;;;;;;;;;;5075875;28;20584;-65
2021/04/23 00:34:33;;;;;;;9.03;4.47;;;;;;;;;;5060041;28;20460;-65
2021/04/23 00:37:00;;;;;;;6.90;3.70;;;;;;;;;;5056405;28;20546;-66
2021/04/23 00:39:26;;;;;;;9.87;3.70;;;;;;;;;;5071027;28;20413;-66
2021/04/23 00:41:52;;;;;;;7.47;4.60;;;;;;;;;;5076048;28;20425;-66
2021/04/23 00:44:19;;;;;;;5.73;3.30;;;;;;;;;;5075236;28;20417;-66
2021/04/23 00:46:45;;;;;;;10.53;4.33;;;;;;;;;;5076234;28;20487;-66
2021/04/23 00:49:12;;;;;;;6.20;4.00;;;;;;;;;;5062436;28;20496;-66
2021/04/23 00:51:39;;;;;;;9.93;4.50;;;;;;;;;;5056225;28;20449;-66
2021/04/23 00:54:06;;;;;;;10.20;3.80;;;;;;;;;;5065534;28;20421;-65
2021/04/23 00:56:33;;;;;;;10.83;5.23;;;;;;;;;;5056488;28;20422;-66
2021/04/23 00:58:59;;;;;;;7.87;4.53;;;;;;;;;;5066130;28;20420;-66
2021/04/23 01:01:30;;;;;;;5.50;4.00;;;;;;;;;;5076286;28;20416;-66
2021/04/23 01:03:57;;;;;;;12.70;5.30;;;;;;;;;;5074507;28;20428;-66
2021/04/23 01:06:30;;;;;;;6.10;3.87;;;;;;;;;;5058060;28;20423;-66
2021/04/23 01:08:58;;;;;;;5.30;4.30;;;;;;;;;;5073637;28;20424;-66
2021/04/23 01:11:25;;;;;;;13.43;4.33;;;;;;;;;;5075428;28;20413;-66
2021/04/23 01:13:51;;;;;;;11.83;4.13;;;;;;;;;;5074188;28;20453;-65
2021/04/23 01:16:19;;;;;;;10.93;4.40;;;;;;;;;;5076270;28;20443;-66
2021/04/23 01:18:46;;;;;;;9.17;4.00;;;;;;;;;;5074864;28;20482;-67
2021/04/23 01:21:13;;;;;;;8.87;4.73;;;;;;;;;;5075779;28;20412;-65
2021/04/23 01:23:41;;;;;;;7.87;5.00;;;;;;;;;;5073047;28;20895;-67
2021/04/23 01:26:08;;;;;;;10.60;4.90;;;;;;;;;;5055281;28;20444;-67
2021/04/23 01:28:34;;;;;;;16.53;4.53;;;;;;;;;;5055727;28;20407;-67
2021/04/23 01:31:01;;;;;;;7.60;4.23;;;;;;;;;;5075082;28;20431;-67
2021/04/23 01:33:28;;;;;;;9.83;4.63;;;;;;;;;;5074705;28;20467;-67
2021/04/23 01:35:54;;;;;;;8.57;4.00;;;;;;;;;;5074852;28;20795;-67
2021/04/23 01:38:20;;;;;;;5.63;3.60;;;;;;;;;;5074430;28;20416;-66
2021/04/23 01:40:47;;;;;;;12.10;4.50;;;;;;;;;;5073827;28;20536;-67
2021/04/23 01:43:14;;;;;;;8.13;3.63;;;;;;;;;;5075279;28;20405;-67
2021/04/23 01:45:40;;;;;;;6.20;3.80;;;;;;;;;;5073168;28;20429;-67
2021/04/23 01:48:07;;;;;;;8.53;4.50;;;;;;;;;;5074345;28;20424;-67
2021/04/23 01:50:33;;;;;;;8.23;3.50;;;;;;;;;;5073290;28;20460;-67
2021/04/23 01:52:59;;;;;;;6.67;3.80;;;;;;;;;;5075313;28;20959;-66
2021/04/23 01:55:25;;;;;;;13.53;4.40;;;;;;;;;;5059072;28;20827;-66
2021/04/23 01:57:51;;;;;;;8.23;3.90;;;;;;;;;;5055773;28;20424;-66
2021/04/23 02:00:20;;;;;;;9.07;5.00;;;;;;;;;;5069232;28;20455;-66
2021/04/23 02:02:47;;;;;;;7.20;3.43;;;;;;;;;;5074005;28;20461;-67
2021/04/23 02:05:13;;;;;;;6.23;3.80;;;;;;;;;;5074279;28;20431;-66
2021/04/23 02:07:40;;;;;;;6.93;4.07;;;;;;;;;;5074765;28;20928;-66
2021/04/23 02:10:08;;;;;;;14.93;4.30;;;;;;;;;;5072776;28;20512;-66
2021/04/23 02:12:34;;;;;;;11.73;4.00;;;;;;;;;;5074392;28;20444;-67
2021/04/23 02:15:00;;;;;;;9.43;4.70;;;;;;;;;;5073784;28;20830;-67
2021/04/23 02:17:26;;;;;;;5.97;4.77;;;;;;;;;;5074746;28;20538;-67
2021/04/23 02:19:52;;;;;;;7.60;3.80;;;;;;;;;;5055781;28;20432;-67
2021/04/23 02:22:18;;;;;;;10.10;4.13;;;;;;;;;;5074883;28;20404;-67
2021/04/23 02:24:44;;;;;;;10.20;4.63;;;;;;;;;;5065548;28;20478;-66
2021/04/23 02:27:10;;;;;;;12.17;4.03;;;;;;;;;;5054459;28;20394;-67
2021/04/23 02:29:36;;;;;;;8.63;4.17;;;;;;;;;;5060709;28;20444;-66
2021/04/23 02:32:03;;;;;;;9.00;4.30;;;;;;;;;;5074469;28;20455;-72
2021/04/23 02:34:29;;;;;;;7.33;4.10;;;;;;;;;;5067796;28;20429;-67
2021/04/23 02:36:55;;;;;;;14.90;4.60;;;;;;;;;;5054434;28;20405;-67
2021/04/23 02:39:22;;;;;;;13.53;5.37;;;;;;;;;;5058683;28;20460;-67
2021/04/23 02:41:50;;;;;;;9.33;4.50;;;;;;;;;;5073970;28;20440;-67
2021/04/23 02:44:17;;;;;;;8.07;4.27;;;;;;;;;;5071994;28;21012;-67
2021/04/23 02:46:43;;;;;;;10.20;4.40;;;;;;;;;;5074323;28;20404;-67
2021/04/23 02:49:10;;;;;;;8.57;3.87;;;;;;;;;;5053166;28;20428;-67
2021/04/23 02:51:41;;;;;;;7.00;3.67;;;;;;;;;;5054967;28;20433;-67
2021/04/23 02:54:08;;;;;;;11.33;5.30;;;;;;;;;;5055623;28;20895;-67
2021/04/23 02:56:35;;;;;;;12.53;4.90;;;;;;;;;;5074300;28;20389;-67
2021/04/23 02:59:01;;;;;;;9.90;4.23;;;;;;;;;;5073017;28;20393;-66
2021/04/23 03:01:29;;;;;;;15.13;4.23;;;;;;;;;;5072761;28;20474;-67
2021/04/23 03:03:56;;;;;;;9.50;5.20;;;;;;;;;;5072976;28;20462;-66
2021/04/23 03:06:22;;;;;;;6.50;4.47;;;;;;;;;;5054146;28;20835;-67
2021/04/23 03:08:48;;;;;;;14.33;4.37;;;;;;;;;;5054133;28;20454;-67
2021/04/23 03:11:17;;;;;;;8.37;4.33;;;;;;;;;;5072376;28;20838;-67
2021/04/23 03:13:52;;;;;;;9.67;4.70;;;;;;;;;;5073666;28;20439;-67
2021/04/23 03:16:18;;;;;;;7.57;3.57;;;;;;;;;;5071841;28;20436;-66
2021/04/23 03:18:45;;;;;;;9.90;4.77;;;;;;;;;;5076275;28;20400;-67
2021/04/23 03:21:12;;;;;;;7.27;4.33;;;;;;;;;;5076762;28;21019;-67
2021/04/23 03:23:38;;;;;;;11.80;4.67;;;;;;;;;;5077542;28;20454;-67
2021/04/23 03:26:05;;;;;;;6.00;4.40;;;;;;;;;;5076602;28;20465;-67
2021/04/23 03:28:32;;;;;;;10.73;5.37;;;;;;;;;;5075742;28;20514;-67
2021/04/23 03:30:58;;;;;;;13.90;5.17;;;;;;;;;;5075875;28;20462;-67
2021/04/23 03:33:24;;;;;;;9.87;4.77;;;;;;;;;;5077296;28;20481;-67
2021/04/23 03:35:52;;;;;;;8.10;4.17;;;;;;;;;;5076264;28;20432;-66
2021/04/23 03:38:21;;;;;;;8.50;5.07;;;;;;;;;;5076876;28;20530;-66
2021/04/23 03:40:49;;;;;;;7.50;5.03;;;;;;;;;;5076300;28;20558;-67
2021/04/23 03:43:15;;;;;;;9.83;4.97;;;;;;;;;;5077589;28;20431;-67
2021/04/23 03:45:41;;;;;;;12.80;4.50;;;;;;;;;;5076321;28;20431;-67
2021/04/23 03:48:07;;;;;;;8.60;5.20;;;;;;;;;;5077324;28;20888;-67
2021/04/23 03:50:34;;;;;;;13.53;4.93;;;;;;;;;;5076591;28;20463;-67
2021/04/23 03:53:01;;;;;;;8.43;4.80;;;;;;;;;;5076906;28;20489;-67
2021/04/23 03:55:29;;;;;;;9.00;4.60;;;;;;;;;;5076169;28;20538;-66
2021/04/23 03:57:56;;;;;;;9.90;4.90;;;;;;;;;;5077192;28;20862;-67
2021/04/23 04:00:24;;;;;;;12.80;4.30;;;;;;;;;;5066743;28;20469;-67
2021/04/23 04:02:50;;;;;;;7.40;4.40;;;;;;;;;;5056912;28;20412;-67
2021/04/23 04:05:16;;;;;;;8.53;4.50;;;;;;;;;;5065355;28;21047;-67
2021/04/23 04:07:42;;;;;;;10.37;4.67;;;;;;;;;;5076967;28;20408;-67
2021/04/23 04:10:10;;;;;;;7.70;4.27;;;;;;;;;;5075743;28;20460;-67
2021/04/23 04:12:36;;;;;;;9.33;4.60;;;;;;;;;;5058500;28;20914;-67
2021/04/23 04:15:03;;;;;;;8.37;4.70;;;;;;;;;;5075661;28;20450;-66
2021/04/23 04:17:29;;;;;;;14.93;5.80;;;;;;;;;;5076873;28;20405;-67
2021/04/23 04:19:55;;;;;;;7.73;4.63;;;;;;;;;;5071248;28;20455;-66
2021/04/23 04:22:21;;;;;;;12.23;4.33;;;;;;;;;;5056522;28;20406;-67
2021/04/23 04:24:47;;;;;;;9.33;4.40;;;;;;;;;;5059756;28;20463;-67
2021/04/23 04:27:15;;;;;;;7.53;4.40;;;;;;;;;;5076845;28;20450;-67
2021/04/23 04:29:41;;;;;;;9.10;4.93;;;;;;;;;;5076104;28;20465;-67
2021/04/23 04:32:07;;;;;;;7.90;4.03;;;;;;;;;;5076814;28;20822;-67
2021/04/23 04:34:33;;;;;;;19.00;5.23;;;;;;;;;;5074743;28;20437;-66
2021/04/23 04:36:59;;;;;;;8.37;4.90;;;;;;;;;;5075910;28;20911;-67
2021/04/23 04:39:25;;;;;;;13.13;5.20;;;;;;;;;;5076749;28;20397;-67
2021/04/23 04:41:51;;;;;;;11.50;5.30;;;;;;;;;;5075353;28;20467;-67
2021/04/23 04:44:18;;;;;;;11.63;5.07;;;;;;;;;;5076413;28;20412;-67
2021/04/23 04:46:44;;;;;;;8.57;4.60;;;;;;;;;;5057649;28;20937;-67
2021/04/23 04:49:10;;;;;;;10.90;4.57;;;;;;;;;;5056555;28;20405;-67
2021/04/23 04:51:36;;;;;;;29.83;5.07;;;;;;;;;;5041557;28;20456;-67
2021/04/23 04:54:04;;;;;;;15.70;5.10;;;;;;;;;;5056293;28;20953;-65
2021/04/23 04:56:30;;;;;;;12.73;4.77;;;;;;;;;;5056510;28;20428;-67
2021/04/23 04:58:57;;;;;;;11.10;5.13;;;;;;;;;;5056538;28;20409;-67
2021/04/23 05:01:23;;;;;;;10.30;4.90;;;;;;;;;;5069879;28;20451;-67
2021/04/23 05:03:49;;;;;;;9.63;4.60;;;;;;;;;;5076335;28;20400;-67
2021/04/23 05:06:15;;;;;;;11.20;4.70;;;;;;;;;;5074994;28;20433;-67
2021/04/23 05:08:41;;;;;;;11.83;5.30;;;;;;;;;;5060650;28;20523;-66
2021/04/23 05:11:07;;;;;;;12.67;6.47;;;;;;;;;;5055973;28;20558;-67
2021/04/23 05:13:33;;;;;;;12.03;5.90;;;;;;;;;;5056062;28;20452;-67
2021/04/23 05:16:02;;;;;;;11.37;5.47;;;;;;;;;;5047823;28;20777;-67
2021/04/23 05:18:28;;;;;;;24.30;8.90;;;;;;;;;;5076048;28;20397;-67
2021/04/23 05:20:54;;;;;;;16.60;7.57;;;;;;;;;;5074924;28;20448;-67
2021/04/23 05:23:20;;;;;;;13.07;6.20;;;;;;;;;;5075962;28;20413;-67
2021/04/23 05:25:46;;;;;;;15.53;7.67;;;;;;;;;;5068219;28;20544;-67
2021/04/23 05:28:12;;;;;;;10.50;6.63;;;;;;;;;;5064363;28;20435;-67
2021/04/23 05:30:39;;;;;;;9.37;5.80;;;;;;;;;;5074554;28;20449;-67
2021/04/23 05:33:07;;;;;;;12.90;6.43;;;;;;;;;;5075947;28;20444;-67
2021/04/23 05:35:33;;;;;;;9.37;5.73;;;;;;;;;;5070254;28;20429;-67
2021/04/23 05:38:00;;;;;;;22.63;6.90;;;;;;;;;;5056425;28;20413;-67
2021/04/23 05:40:34;;;;;;;21.23;8.03;;;;;;;;;;5060731;28;20468;-67
2021/04/23 05:43:00;;;;;;;16.97;8.23;;;;;;;;;;5057702;28;20436;-67
2021/04/23 05:45:26;;;;;;;29.93;9.50;;;;;;;;;;5074586;28;20789;-67
2021/04/23 05:47:53;;;;;;;12.40;6.83;;;;;;;;;;5075787;28;20405;-67
2021/04/23 05:50:19;;;;;;;16.33;8.03;;;;;;;;;;5072342;28;20464;-67
2021/04/23 05:52:46;;;;;;;18.47;8.97;;;;;;;;;;5055610;28;20506;-67
2021/04/23 05:55:12;;;;;;;13.03;7.93;;;;;;;;;;5055746;28;20497;-67
2021/04/23 05:57:39;;;;;;;12.27;8.77;;;;;;;;;;5074803;28;20432;-67
2021/04/23 06:00:06;;;;;;;11.50;7.50;;;;;;;;;;5074465;28;20433;-67
2021/04/23 06:02:32;;;;;;;12.50;7.80;;;;;;;;;;5075635;28;20463;-67
2021/04/23 06:04:58;;;;;;;15.53;7.90;;;;;;;;;;5075715;28;20508;-67
2021/04/23 06:07:25;;;;;;;14.83;8.37;;;;;;;;;;5056452;28;20445;-67
2021/04/23 06:09:51;;;;;;;17.17;8.63;;;;;;;;;;5076151;28;20405;-67
2021/04/23 06:12:17;;;;;;;15.57;7.33;;;;;;;;;;5057459;28;20464;-67
2021/04/23 06:14:43;;;;;;;16.83;10.43;;;;;;;;;;5062531;28;20433;-67
2021/04/23 06:17:09;;;;;;;11.23;7.67;;;;;;;;;;5058524;28;20430;-67
2021/04/23 06:19:36;;;;;;;14.90;7.57;;;;;;;;;;5055978;28;20836;-67
2021/04/23 06:22:02;;;;;;;17.43;8.30;;;;;;;;;;5072288;28;20440;-67
2021/04/23 06:24:28;;;;;;;12.33;6.90;;;;;;;;;;5077061;28;20401;-67
2021/04/23 06:26:54;;;;;;;14.03;6.93;;;;;;;;;;5074470;28;20435;-67
2021/04/23 06:29:21;;;;;;;14.83;7.83;;;;;;;;;;5076172;28;20412;-65
2021/04/23 06:31:47;;;;;;;12.43;8.83;;;;;;;;;;5074683;28;20451;-66
2021/04/23 06:34:13;;;;;;;18.20;7.77;;;;;;;;;;5073344;28;20495;-66
2021/04/23 06:36:40;;;;;;;12.60;7.50;;;;;;;;;;5074964;28;20433;-66
2021/04/23 06:39:12;;;;;;;15.03;6.63;;;;;;;;;;5076489;28;20440;-66
2021/04/23 06:41:38;;;;;;;11.10;6.10;;;;;;;;;;5063947;28;20457;-66
2021/04/23 06:44:05;;;;;;;12.77;6.20;;;;;;;;;;5056304;28;20409;-66
2021/04/23 06:46:31;;;;;;;12.07;6.50;;;;;;;;;;5056049;28;20426;-66
2021/04/23 06:48:57;;;;;;;10.23;5.70;;;;;;;;;;5055431;28;20440;-66
2021/04/23 06:51:23;;;;;;;9.43;5.30;;;;;;;;;;5063982;28;20445;-66
2021/04/23 06:53:49;;;;;;;12.23;6.03;;;;;;;;;;5079366;28;20547;-66
2021/04/23 06:56:15;;;;;;;12.40;6.30;;;;;;;;;;5078772;28;20510;-66
2021/04/23 06:58:42;;;;;;;11.57;6.93;;;;;;;;;;5079213;28;20917;-67
2021/04/23 07:01:08;;;;;;;14.80;5.70;;;;;;;;;;5076992;28;20449;-66
2021/04/23 07:03:34;;;;;;;9.83;5.23;;;;;;;;;;5077971;28;20420;-66
2021/04/23 07:06:00;;;;;;;12.00;5.13;;;;;;;;;;5074365;28;20515;-64
2021/04/23 07:08:26;;;;;;;11.20;6.40;;;;;;;;;;5074379;28;20417;-64
2021/04/23 07:10:53;;;;;;;11.80;5.90;;;;;;;;;;5064982;28;20440;-63
2021/04/23 07:13:19;;;;;;;8.83;5.70;;;;;;;;;;5063374;28;20452;-63
2021/04/23 07:15:45;;;;;;;18.03;6.80;;;;;;;;;;5072017;28;20413;-63
2021/04/23 07:18:11;;;;;;;9.37;4.37;;;;;;;;;;5065573;28;20456;-64
2021/04/23 07:20:38;;;;;;;10.40;5.47;;;;;;;;;;5076064;28;20433;-64
2021/04/23 07:23:04;;;;;;;12.30;4.80;;;;;;;;;;5075221;28;20431;-65
2021/04/23 07:25:31;;;;;;;11.47;4.53;;;;;;;;;;5074178;28;20424;-64
2021/04/23 07:27:59;;;;;;;8.20;4.43;;;;;;;;;;5070827;28;20428;-64
2021/04/23 07:30:27;;;;;;;8.20;3.57;;;;;;;;;;5074271;28;20969;-65
2021/04/23 07:32:53;;;;;;;10.90;3.90;;;;;;;;;;5065586;28;20514;-64
2021/04/23 07:35:19;;;;;;;7.90;3.63;;;;;;;;;;5066046;28;20754;-65
2021/04/23 07:37:45;;;;;;;5.63;2.80;;;;;;;;;;5072395;28;20431;-64
2021/04/23 07:40:14;;;;;;;11.83;3.87;;;;;;;;;;5077557;28;20441;-66
2021/04/23 07:42:40;;;;;;;6.83;4.00;;;;;;;;;;5072153;28;20443;-66
2021/04/23 07:45:07;;;;;;;10.80;4.27;;;;;;;;;;5073265;28;20427;-66
2021/04/23 07:47:33;;;;;;;11.13;6.37;;;;;;;;;;5072132;28;20929;-66
2021/04/23 07:50:00;;;;;;;6.87;3.60;;;;;;;;;;5066570;28;20518;-66
2021/04/23 07:52:27;;;;;;;9.50;4.57;;;;;;;;;;5070246;28;20789;-66
2021/04/23 07:54:53;;;;;;;10.00;5.17;;;;;;;;;;5066487;28;20422;-68
2021/04/23 07:57:19;;;;;;;9.80;4.80;;;;;;;;;;5051242;28;20800;-66
2021/04/23 07:59:46;;;;;;;11.90;4.70;;;;;;;;;;5064904;28;20550;-66
2021/04/23 08:02:12;;;;;;;7.30;4.53;;;;;;;;;;5066907;28;20421;-66
2021/04/23 08:04:39;;;;;;;10.47;5.50;;;;;;;;;;5072297;28;20544;-66
2021/04/23 08:07:08;;;;;;;20.93;5.73;;;;;;;;;;5063053;28;20943;-66
2021/04/23 08:09:36;;;;;;;9.40;4.73;;;;;;;;;;5075239;28;20421;-66
2021/04/23 08:12:02;;;;;;;8.00;4.93;;;;;;;;;;5073204;28;20515;-66
2021/04/23 08:14:28;;;;;;;11.23;4.47;;;;;;;;;;5074824;28;20929;-66
2021/04/23 08:16:54;;;;;;;7.17;3.90;;;;;;;;;;5072503;28;20413;-66
2021/04/23 08:19:20;;;;;;;8.53;4.10;;;;;;;;;;5074260;28;20404;-66
2021/04/23 08:21:47;;;;;;;8.53;4.20;;;;;;;;;;5071205;28;20441;-66
2021/04/23 08:24:13;;;;;;;5.43;3.40;;;;;;;;;;5055664;28;20429;-66
2021/04/23 08:26:42;;;;;;;7.10;3.73;;;;;;;;;;5073190;28;20444;-66
2021/04/23 08:29:08;;;;;;;8.47;4.20;;;;;;;;;;5068769;28;20467;-67
2021/04/23 08:31:34;;;;;;;8.67;3.47;;;;;;;;;;5071967;28;20421;-66
2021/04/23 08:34:00;;;;;;;11.37;4.47;;;;;;;;;;5072249;28;20448;-66
2021/04/23 08:36:26;;;;;;;11.43;5.10;;;;;;;;;;5072259;28;20417;-66
2021/04/23 08:38:52;;;;;;;8.50;5.03;;;;;;;;;;5074088;28;20463;-66
2021/04/23 08:41:18;;;;;;;9.20;5.03;;;;;;;;;;5067446;28;20462;-66
2021/04/23 08:43:44;;;;;;;7.70;4.00;;;;;;;;;;5070252;28;20466;-66
2021/04/23 08:46:10;;;;;;;7.23;4.50;;;;;;;;;;5070403;28;20425;-66
2021/04/23 08:48:37;;;;;;;11.77;3.80;;;;;;;;;;5070302;28;20455;-66
2021/04/23 08:51:03;;;;;;;7.93;4.00;;;;;;;;;;5072779;28;20448;-66
2021/04/23 08:53:29;;;;;;;5.33;3.43;;;;;;;;;;5073197;28;20468;-66
2021/04/23 08:55:56;;;;;;;6.60;3.67;;;;;;;;;;5074087;28;20396;-66
2021/04/23 08:58:22;;;;;;;9.23;4.47;;;;;;;;;;5072488;28;20449;-66
2021/04/23 09:00:48;;;;;;;11.53;4.40;;;;;;;;;;5073535;28;20535;-66
2021/04/23 09:03:23;;;;;;;8.67;5.13;;;;;;;;;;5068416;28;20428;-66
2021/04/23 09:06:08;;;;;;;9.57;3.83;;;;;;;;;;5074033;28;20395;-66
2021/04/23 09:08:35;;;;;;;8.43;3.80;;;;;;;;;;5073374;28;20496;-65
2021/04/23 09:11:14;;;;;;;6.43;3.63;;;;;;;;;;5055642;28;20441;-64
2021/04/23 09:13:52;;;;;;;7.80;3.60;;;;;;;;;;5071365;28;20449;-65
2021/04/23 09:16:20;;;;;;;8.13;4.53;;;;;;;;;;5078339;28;20401;-65
2021/04/23 09:18:46;;;;;;;8.53;4.10;;;;;;;;;;5072841;28;20534;-66
2021/04/23 09:21:15;;;;;;;9.80;4.30;;;;;;;;;;5071531;28;20447;-66
2021/04/23 09:23:51;;;;;;;12.80;4.97;;;;;;;;;;5071010;28;20489;-65
2021/04/23 09:26:31;;;;;;;7.93;3.63;;;;;;;;;;5070791;28;20477;-67
2021/04/23 09:28:57;;;;;;;10.43;4.30;;;;;;;;;;5054068;28;20428;-66
2021/04/23 09:31:29;;;;;;;8.98;4.07;;;;;;;;;;5061282;28;20917;-66
2021/04/23 09:33:57;;;;;;;9.63;4.40;;;;;;;;;;5068356;28;20423;-63
2021/04/23 09:36:31;;;;;;;8.30;3.90;;;;;;;;;;5081228;28;20171;-64
2021/04/23 09:39:10;;;;;;;10.33;4.03;;;;;;;;;;5058751;28;20424;-64
2021/04/23 09:41:37;;;;;;;7.50;4.47;;;;;;;;;;5078126;28;20811;-65
2021/04/23 09:44:04;;;;;;;8.40;3.50;;;;;;;;;;5073211;28;20486;-66
2021/04/23 09:46:33;;;;;;;10.20;4.30;;;;;;;;;;5072888;28;20440;-64
2021/04/23 09:49:18;;;;;;;11.77;3.93;;;;;;;;;;5069961;28;20190;-66
2021/04/23 09:51:45;;;;;;;10.10;4.43;;;;;;;;;;5066572;28;20491;-66
2021/04/23 09:54:19;;;;;;;10.83;4.00;;;;;;;;;;5073814;28;20494;-66
2021/04/23 09:56:45;;;;;;;9.33;3.90;;;;;;;;;;5073636;28;20412;-64
2021/04/23 09:59:17;;;;;;;9.83;3.73;;;;;;;;;;5073083;28;20828;-66
2021/04/23 10:01:51;;;;;;;5.33;3.70;;;;;;;;;;5071305;28;20440;-67
2021/04/23 10:04:24;;;;;;;8.00;4.13;;;;;;;;;;5070987;28;20421;-64
2021/04/23 10:07:12;;;;;;;6.70;3.57;;;;;;;;;;5075297;28;20401;-63
2021/04/23 10:09:50;;;;;;;9.97;4.20;;;;;;;;;;5075328;28;20419;-64
2021/04/23 10:12:36;;;;;;;9.20;4.03;;;;;;;;;;5090130;28;20420;-63
2021/04/23 10:15:05;;;;;;;6.50;3.33;;;;;;;;;;5052256;28;20785;-63
2021/04/23 10:17:31;;;;;;;10.43;3.33;;;;;;;;;;5072399;28;20482;-64
2021/04/23 10:19:58;;;;;;;8.57;4.20;;;;;;;;;;5074840;28;20433;-64
2021/04/23 10:22:25;;;;;;;10.93;4.00;;;;;;;;;;5073808;28;20428;-63
2021/04/23 10:24:51;;;;;;;9.13;4.30;;;;;;;;;;5074283;28;20493;-64
2021/04/23 10:27:18;;;;;;;6.60;4.10;;;;;;;;;;5071593;28;20477;-64
2021/04/23 10:29:46;;;;;;;15.93;5.90;;;;;;;;;;5071664;28;20453;-62
2021/04/23 10:32:13;;;;;;;9.70;4.57;;;;;;;;;;5067974;28;20439;-63
2021/04/23 10:34:40;;;;;;;10.50;3.87;;;;;;;;;;5071706;28;20421;-62
2021/04/23 10:37:06;;;;;;;6.80;4.10;;;;;;;;;;5071103;28;20409;-64
2021/04/23 10:39:41;;;;;;;9.30;3.93;;;;;;;;;;5072442;28;20423;-65
2021/04/23 10:42:27;;;;;;;9.77;3.90;;;;;;;;;;5068030;28;20764;-65
2021/04/23 10:45:01;;;;;;;6.30;3.40;;;;;;;;;;5074221;28;20431;-65
2021/04/23 10:47:35;;;;;;;10.47;4.27;;;;;;;;;;5071196;28;20482;-65
2021/04/23 10:50:07;;;;;;;8.20;4.30;;;;;;;;;;5070393;28;20562;-65
2021/04/23 10:52:33;;;;;;;10.50;3.87;;;;;;;;;;5070604;28;20540;-65
2021/04/23 10:55:06;;;;;;;5.87;4.00;;;;;;;;;;5073203;28;20419;-65
2021/04/23 10:57:51;;;;;;;8.13;4.23;;;;;;;;;;5069897;28;20421;-65
2021/04/23 11:00:30;;;;;;;6.33;3.63;;;;;;;;;;5072113;28;20590;-65
2021/04/23 11:03:15;;;;;;;6.77;3.60;;;;;;;;;;5055378;28;20432;-65
2021/04/23 11:05:41;;;;;;;13.90;4.17;;;;;;;;;;5070655;28;20471;-65
2021/04/23 11:08:08;;;;;;;6.67;5.30;;;;;;;;;;5073744;28;20477;-66
2021/04/23 11:10:54;;;;;;;9.00;4.10;;;;;;;;;;5073841;28;20448;-66
2021/04/23 11:13:23;;;;;;;7.63;4.60;;;;;;;;;;5069560;28;20459;-63
2021/04/23 11:16:08;;;;;;;14.30;4.57;;;;;;;;;;5070653;28;20440;-63
2021/04/23 11:18:34;;;;;;;9.00;3.90;;;;;;;;;;5046378;28;20424;-63
2021/04/23 11:21:18;;;;;;;9.37;3.83;;;;;;;;;;5071483;28;20516;-63
2021/04/23 11:24:03;;;;;;;7.97;4.20;;;;;;;;;;5069504;28;20988;-62
2021/04/23 11:26:47;;;;;;;9.00;4.50;;;;;;;;;;5068060;28;20504;-63
2021/04/23 11:29:14;;;;;;;16.07;4.53;;;;;;;;;;5070368;28;20439;-63
2021/04/23 11:31:59;;;;;;;8.47;4.77;;;;;;;;;;5071665;28;20445;-63
2021/04/23 11:34:36;;;;;;;6.80;3.80;;;;;;;;;;5068438;28;20432;-64
2021/04/23 11:37:03;;;;;;;11.00;4.53;;;;;;;;;;5070287;28;20839;-64
2021/04/23 11:39:34;;;;;;;7.13;3.90;;;;;;;;;;5073292;28;20510;-64
2021/04/23 11:42:11;;;;;;;7.27;3.70;;;;;;;;;;5075466;28;20880;-64
2021/04/23 11:44:44;;;;;;;10.90;4.80;;;;;;;;;;5074845;28;20421;-64
2021/04/23 11:47:10;;;;;;;9.80;4.30;;;;;;;;;;5073981;28;20917;-64
2021/04/23 11:49:36;;;;;;;14.10;4.20;;;;;;;;;;5077022;28;20421;-63
2021/04/23 11:52:04;;;;;;;11.43;4.27;;;;;;;;;;5070567;28;20787;-63
2021/04/23 11:54:34;;;;;;;7.27;4.50;;;;;;;;;;5071725;28;20508;-63
2021/04/23 11:57:01;;;;;;;11.40;4.40;;;;;;;;;;5068957;28;20803;-64
2021/04/23 11:59:27;;;;;;;10.90;4.10;;;;;;;;;;5069847;28;20429;-64
2021/04/23 12:01:53;;;;;;;6.00;3.50;;;;;;;;;;5070367;28;20453;-66
2021/04/23 12:04:38;;;;;;;9.37;4.07;;;;;;;;;;5074551;28;20424;-63
2021/04/23 12:07:04;;;;;;;9.00;3.70;;;;;;;;;;5070792;28;20436;-62
2021/04/23 12:09:30;;;;;;;6.80;3.43;;;;;;;;;;5073153;28;20486;-63
2021/04/23 12:12:10;;;;;;;8.67;4.40;;;;;;;;;;5058336;28;21364;-65
2021/04/23 12:14:49;;;;;;;6.97;3.60;;;;;;;;;;5074176;28;20515;-63
2021/04/23 12:17:15;;;;;;;10.00;3.90;;;;;;;;;;5075532;28;20412;-64
2021/04/23 12:19:42;;;;;;;12.03;4.00;;;;;;;;;;5072134;28;20435;-62
2021/04/23 12:22:08;;;;;;;6.33;3.60;;;;;;;;;;5074447;28;20417;-62
2021/04/23 12:24:34;;;;;;;9.00;2.83;;;;;;;;;;5071506;28;20425;-63
2021/04/23 12:27:01;;;;;;;11.43;4.00;;;;;;;;;;5071176;28;20428;-65
2021/04/23 12:29:27;;;;;;;6.53;2.97;;;;;;;;;;5071997;28;20417;-64
2021/04/23 12:31:53;;;;;;;5.73;3.40;;;;;;;;;;5048353;28;20773;-65
2021/04/23 12:34:20;;;;;;;5.63;3.20;;;;;;;;;;5067320;28;20446;-65
2021/04/23 12:36:47;;;;;;;8.73;3.50;;;;;;;;;;5052991;28;20402;-64
2021/04/23 12:39:14;;;;;;;5.17;2.67;;;;;;;;;;5070123;28;20425;-65
2021/04/23 12:41:43;;;;;;;7.80;3.10;;;;;;;;;;5073192;28;20953;-64
2021/04/23 12:44:12;;;;;;;6.93;3.33;;;;;;;;;;5070231;28;20432;-65
2021/04/23 12:46:41;;;;;;;9.33;3.27;;;;;;;;;;5073463;28;20818;-63
2021/04/23 12:49:13;;;;;;;6.40;2.60;;;;;;;;;;5072996;28;20433;-64
2021/04/23 12:51:50;;;;;;;6.27;3.87;;;;;;;;;;5073725;28;20857;-64
2021/04/23 12:54:17;;;;;;;4.10;2.77;;;;;;;;;;5068695;28;20456;-64
2021/04/23 12:56:49;;;;;;;5.40;3.07;;;;;;;;;;5063376;28;20429;-64
2021/04/23 12:59:53;;;;;;;5.80;2.93;;;;;;;;;;5067555;28;20424;-64
2021/04/23 13:02:22;;;;;;;10.10;3.00;;;;;;;;;;4974957;28;20508;-64
2021/04/23 13:04:48;;;;;;;4.57;2.80;;;;;;;;;;4991641;28;20803;-64
2021/04/23 13:07:17;;;;;;;5.50;3.30;;;;;;;;;;5028600;28;20469;-64
2021/04/23 13:09:43;;;;;;;7.23;3.00;;;;;;;;;;5072120;28;20520;-64
2021/04/23 13:12:16;;;;;;;7.60;2.87;;;;;;;;;;5053737;28;20783;-64
2021/04/23 13:14:44;;;;;;;4.07;3.23;;;;;;;;;;5071737;28;20425;-64
2021/04/23 13:17:10;;;;;;;4.80;2.87;;;;;;;;;;5065941;28;20433;-64
2021/04/23 13:19:45;;;;;;;4.17;2.70;;;;;;;;;;5071765;28;20512;-64
2021/04/23 13:22:23;;;;;;;4.17;2.47;;;;;;;;;;5070434;28;20419;-64
2021/04/23 13:25:09;;;;;;;6.40;3.03;;;;;;;;;;5066598;28;20433;-64
2021/04/23 13:27:35;;;;;;;6.03;2.83;;;;;;;;;;5036117;28;20426;-64
2021/04/23 13:30:01;;;;;;;7.20;3.37;;;;;;;;;;5064975;28;20473;-64
2021/04/23 13:32:29;;;;;;;7.17;2.90;;;;;;;;;;5073002;28;20486;-64
2021/04/23 13:34:56;;;;;;;5.67;2.83;;;;;;;;;;5072278;28;20933;-64
2021/04/23 13:37:34;;;;;;;5.17;3.20;;;;;;;;;;5072558;28;20410;-64
2021/04/23 13:40:01;;;;;;;8.37;3.77;;;;;;;;;;5069796;28;20452;-64
2021/04/23 13:42:28;;;;;;;5.47;3.03;;;;;;;;;;5069522;28;20429;-63
2021/04/23 13:44:54;;;;;;;5.77;3.70;;;;;;;;;;5070845;28;20417;-64
2021/04/23 13:47:20;;;;;;;10.33;3.23;;;;;;;;;;5073715;28;20441;-64
2021/04/23 13:49:46;;;;;;;8.17;3.33;;;;;;;;;;5071129;28;20459;-64
2021/04/23 13:52:13;;;;;;;10.63;3.20;;;;;;;;;;5071558;28;20442;-64
2021/04/23 13:54:40;;;;;;;4.30;3.37;;;;;;;;;;5064856;28;20524;-65
2021/04/23 13:57:14;;;;;;;5.90;3.83;;;;;;;;;;5070189;28;20467;-64
2021/04/23 13:59:40;;;;;;;5.93;3.17;;;;;;;;;;5068955;28;20798;-65
2021/04/23 14:02:07;;;;;;;5.90;3.60;;;;;;;;;;5050383;28;20513;-64
2021/04/23 14:04:35;;;;;;;6.27;3.50;;;;;;;;;;5069202;28;20507;-64
2021/04/23 14:07:02;;;;;;;5.90;3.30;;;;;;;;;;5052794;28;20425;-64
2021/04/23 14:09:29;;;;;;;4.87;3.20;;;;;;;;;;5065888;28;20429;-64
2021/04/23 14:11:56;;;;;;;7.47;3.13;;;;;;;;;;5056363;28;20894;-64
2021/04/23 14:14:24;;;;;;;5.63;3.47;;;;;;;;;;5066516;28;20953;-64
2021/04/23 14:16:55;;;;;;;4.97;3.00;;;;;;;;;;5068816;28;20417;-64
2021/04/23 14:19:21;;;;;;;5.27;3.43;;;;;;;;;;5065758;28;20433;-65
2021/04/23 14:21:48;;;;;;;10.90;3.83;;;;;;;;;;5070588;28;20449;-65
2021/04/23 14:24:14;;;;;;;5.10;3.13;;;;;;;;;;5063890;28;20934;-65
2021/04/23 14:26:41;;;;;;;7.93;3.20;;;;;;;;;;5070839;28;20433;-64
2021/04/23 14:29:10;;;;;;;5.97;3.00;;;;;;;;;;5069279;28;20511;-65
2021/04/23 14:31:36;;;;;;;8.50;3.60;;;;;;;;;;5066265;28;20480;-65
2021/04/23 14:34:02;;;;;;;10.33;4.27;;;;;;;;;;5064320;28;20454;-65
2021/04/23 14:36:28;;;;;;;5.40;3.13;;;;;;;;;;5067815;28;20433;-66
2021/04/23 14:38:54;;;;;;;9.53;3.97;;;;;;;;;;5067671;28;20421;-63
2021/04/23 14:41:20;;;;;;;6.80;3.60;;;;;;;;;;5069736;28;20469;-66
2021/04/23 14:43:46;;;;;;;7.23;3.47;;;;;;;;;;5067542;28;20917;-65
2021/04/23 14:46:13;;;;;;;5.93;2.97;;;;;;;;;;5069895;28;20782;-64